createdAt,value
2022-12-22T00:01:14.356Z,0
2022-12-22T00:01:55.029Z,0
2022-12-22T00:02:35.627Z,0
2022-12-22T00:03:16.191Z,0
2022-12-22T00:05:54.403Z,0
2022-12-22T00:06:35.038Z,0
2022-12-22T00:07:16.620Z,0
2022-12-22T00:07:57.229Z,0
2022-12-22T00:10:10.311Z,0
2022-12-22T00:10:50.826Z,0
2022-12-22T00:11:31.375Z,0
2022-12-22T00:12:11.926Z,0
2022-12-22T00:16:29.985Z,0
2022-12-22T00:17:12.507Z,0
2022-12-22T00:17:53.920Z,0
2022-12-22T00:18:37.090Z,0
2022-12-22T00:19:17.589Z,0
2022-12-22T00:22:32.224Z,0
2022-12-22T00:23:12.724Z,0
2022-12-22T00:23:53.279Z,0
2022-12-22T00:24:33.812Z,0
2022-12-22T00:28:36.964Z,0
2022-12-22T00:29:17.492Z,0
2022-12-22T00:29:58.025Z,0
2022-12-22T00:30:38.622Z,0
2022-12-22T00:31:19.163Z,0
2022-12-22T00:31:59.661Z,0
2022-12-22T00:32:40.319Z,0
2022-12-22T00:33:20.787Z,0
2022-12-22T00:34:01.302Z,0
2022-12-22T00:34:41.825Z,0
2022-12-22T00:41:39.089Z,0
2022-12-22T00:42:19.607Z,0
2022-12-22T00:43:00.136Z,0
2022-12-22T00:43:40.652Z,0
2022-12-22T00:47:43.889Z,0
2022-12-22T00:48:24.439Z,0
2022-12-22T00:49:04.987Z,0
2022-12-22T00:49:46.154Z,0
2022-12-22T00:50:26.679Z,0
2022-12-22T00:51:07.204Z,0
2022-12-22T00:51:47.736Z,0
2022-12-22T00:52:28.288Z,0
2022-12-22T01:00:05.696Z,0
2022-12-22T01:00:46.856Z,0
2022-12-22T01:01:27.441Z,0
2022-12-22T01:02:08.872Z,0
2022-12-22T01:04:10.851Z,0
2022-12-22T01:04:51.389Z,0
2022-12-22T01:05:31.932Z,0
2022-12-22T01:06:12.449Z,0
2022-12-22T01:06:52.985Z,0
2022-12-22T01:07:33.506Z,0
2022-12-22T01:08:14.059Z,0
2022-12-22T01:08:54.569Z,0
2022-12-22T01:09:35.081Z,0
2022-12-22T01:15:00.433Z,0
2022-12-22T01:15:41.010Z,0
2022-12-22T01:16:22.295Z,0
2022-12-22T01:17:02.781Z,0
2022-12-22T01:17:43.328Z,0
2022-12-22T01:18:23.868Z,0
2022-12-22T01:19:04.384Z,0
2022-12-22T01:19:44.941Z,0
2022-12-22T01:25:21.280Z,0
2022-12-22T01:26:01.770Z,0
2022-12-22T01:26:42.315Z,0
2022-12-22T01:27:22.855Z,0
2022-12-22T01:31:26.172Z,0
2022-12-22T01:32:06.624Z,0
2022-12-22T01:32:47.201Z,0
2022-12-22T01:33:27.757Z,0
2022-12-22T01:34:08.275Z,0
2022-12-22T01:34:48.807Z,0
2022-12-22T01:35:29.323Z,0
2022-12-22T01:36:09.850Z,0
2022-12-22T01:36:50.507Z,0
2022-12-22T01:43:36.039Z,0
2022-12-22T01:44:16.550Z,0
2022-12-22T01:44:57.117Z,0
2022-12-22T01:45:37.684Z,0
2022-12-22T01:46:18.251Z,0
2022-12-22T01:46:58.742Z,0
2022-12-22T01:47:39.266Z,0
2022-12-22T01:48:19.793Z,0
2022-12-22T01:49:00.312Z,0
2022-12-22T01:49:40.868Z,0
2022-12-22T01:53:19.729Z,0
2022-12-22T01:53:55.558Z,0
2022-12-22T01:54:36.066Z,0
2022-12-22T01:55:16.586Z,0
2022-12-22T01:59:19.864Z,0
2022-12-22T02:00:00.370Z,0
2022-12-22T02:00:40.825Z,0
2022-12-22T02:01:21.384Z,0
2022-12-22T02:02:01.949Z,0
2022-12-22T02:02:42.540Z,0
2022-12-22T02:03:22.979Z,0
2022-12-22T02:04:03.471Z,0
2022-12-22T02:04:44.056Z,0
2022-12-22T02:05:24.650Z,0
2022-12-22T02:12:10.004Z,0
2022-12-22T02:12:50.557Z,0
2022-12-22T02:13:31.107Z,0
2022-12-22T02:16:09.592Z,0
2022-12-22T02:16:50.098Z,0
2022-12-22T02:17:30.606Z,0
2022-12-22T02:18:11.161Z,0
2022-12-22T02:22:14.352Z,0
2022-12-22T02:22:55.786Z,0
2022-12-22T02:23:36.322Z,0
2022-12-22T02:24:16.848Z,0
2022-12-22T02:24:57.397Z,0
2022-12-22T02:25:37.952Z,0
2022-12-22T02:26:18.516Z,0
2022-12-22T02:26:59.066Z,0
2022-12-22T02:31:14.898Z,0
2022-12-22T02:31:55.813Z,0
2022-12-22T02:32:36.389Z,0
2022-12-22T02:33:17.006Z,0
2022-12-22T02:35:31.046Z,0
2022-12-22T02:36:11.601Z,0
2022-12-22T02:36:53.076Z,0
2022-12-22T02:37:33.644Z,0
2022-12-22T02:40:07.821Z,0
2022-12-22T02:40:48.341Z,0
2022-12-22T02:41:28.856Z,0
2022-12-22T02:42:09.430Z,0
2022-12-22T02:45:04.555Z,0
2022-12-22T02:45:45.077Z,0
2022-12-22T02:46:25.636Z,0
2022-12-22T02:47:06.430Z,0
2022-12-22T02:50:29.098Z,0
2022-12-22T02:51:09.648Z,0
2022-12-22T02:51:50.172Z,0
2022-12-22T02:52:30.682Z,0
2022-12-22T02:53:11.218Z,0
2022-12-22T02:53:51.756Z,0
2022-12-22T02:54:32.940Z,0
2022-12-22T02:55:13.466Z,0
2022-12-22T02:55:54.018Z,0
2022-12-22T03:02:39.554Z,0
2022-12-22T03:03:20.002Z,0
2022-12-22T03:04:00.495Z,0
2022-12-22T03:04:41.675Z,0
2022-12-22T03:05:22.246Z,0
2022-12-22T03:06:02.791Z,0
2022-12-22T03:06:43.344Z,0
2022-12-22T03:08:56.401Z,0
2022-12-22T03:09:36.934Z,0
2022-12-22T03:10:17.477Z,0
2022-12-22T03:10:57.999Z,0
2022-12-22T03:13:51.849Z,0
2022-12-22T03:14:32.385Z,0
2022-12-22T03:15:12.914Z,0
2022-12-22T03:15:53.489Z,0
2022-12-22T03:18:36.688Z,0
2022-12-22T03:19:17.264Z,0
2022-12-22T03:19:57.844Z,0
2022-12-22T03:20:38.363Z,0
2022-12-22T03:21:18.908Z,0
2022-12-22T03:21:59.461Z,0
2022-12-22T03:22:40.020Z,0
2022-12-22T03:23:20.570Z,0
2022-12-22T03:24:01.110Z,0
2022-12-22T03:28:59.198Z,0
2022-12-22T03:29:39.811Z,0
2022-12-22T03:31:37.961Z,0
2022-12-22T03:32:18.511Z,0
2022-12-22T03:33:00.886Z,0
2022-12-22T03:33:41.414Z,0
2022-12-22T03:36:09.717Z,0
2022-12-22T03:36:50.234Z,0
2022-12-22T03:37:30.794Z,0
2022-12-22T03:38:11.897Z,0
2022-12-22T03:41:07.064Z,0
2022-12-22T03:41:47.572Z,0
2022-12-22T03:42:28.124Z,0
2022-12-22T03:43:08.659Z,0
2022-12-22T03:48:44.401Z,0
2022-12-22T03:49:24.944Z,0
2022-12-22T03:50:05.471Z,0
2022-12-22T03:50:45.988Z,0
2022-12-22T03:54:49.181Z,0
2022-12-22T03:55:29.700Z,0
2022-12-22T03:56:10.243Z,0
2022-12-22T03:56:50.803Z,0
2022-12-22T03:57:31.339Z,0
2022-12-22T03:58:11.905Z,0
2022-12-22T03:58:52.447Z,0
2022-12-22T03:59:33.011Z,0
2022-12-22T04:00:13.562Z,0
2022-12-22T04:02:51.826Z,0
2022-12-22T04:03:32.318Z,0
2022-12-22T04:04:13.871Z,0
2022-12-22T04:04:54.379Z,0
2022-12-22T04:06:57.100Z,0
2022-12-22T04:07:37.637Z,0
2022-12-22T04:08:18.201Z,0
2022-12-22T04:08:59.419Z,0
2022-12-22T04:09:39.951Z,0
2022-12-22T04:10:20.451Z,0
2022-12-22T04:11:01.014Z,0
2022-12-22T04:18:26.865Z,0
2022-12-22T04:19:07.357Z,0
2022-12-22T04:19:47.873Z,0
2022-12-22T04:20:28.445Z,0
2022-12-22T04:21:08.968Z,0
2022-12-22T04:21:49.518Z,0
2022-12-22T04:22:30.088Z,0
2022-12-22T04:23:10.683Z,0
2022-12-22T04:23:51.272Z,0
2022-12-22T04:29:56.851Z,0
2022-12-22T04:30:37.429Z,0
2022-12-22T04:31:17.994Z,0
2022-12-22T04:31:58.506Z,0
2022-12-22T04:32:38.991Z,0
2022-12-22T04:33:19.515Z,0
2022-12-22T04:34:00.060Z,0
2022-12-22T04:34:40.557Z,0
2022-12-22T04:35:21.089Z,0
2022-12-22T04:38:56.717Z,0
2022-12-22T04:39:37.239Z,0
2022-12-22T04:40:17.781Z,0
2022-12-22T04:40:58.381Z,0
2022-12-22T04:44:32.500Z,0
2022-12-22T04:45:13.053Z,0
2022-12-22T04:45:53.601Z,0
2022-12-22T04:46:34.123Z,0
2022-12-22T04:49:57.304Z,0
2022-12-22T04:50:37.837Z,0
2022-12-22T04:51:18.350Z,0
2022-12-22T04:51:58.880Z,0
2022-12-22T04:52:39.412Z,0
2022-12-22T04:53:19.949Z,0
2022-12-22T04:54:00.515Z,0
2022-12-22T04:54:41.061Z,0
2022-12-22T04:55:21.608Z,0
2022-12-22T04:56:02.171Z,0
2022-12-22T04:58:58.063Z,0
2022-12-22T04:59:39.848Z,0
2022-12-22T05:00:21.414Z,0
2022-12-22T05:01:04.597Z,0
2022-12-22T05:03:18.105Z,0
2022-12-22T05:03:58.571Z,0
2022-12-22T05:04:39.219Z,0
2022-12-22T05:05:19.729Z,0
2022-12-22T05:09:22.925Z,0
2022-12-22T05:10:03.454Z,0
2022-12-22T05:10:44.009Z,0
2022-12-22T05:11:24.549Z,0
2022-12-22T05:12:05.104Z,0
2022-12-22T05:12:45.630Z,0
2022-12-22T05:13:26.153Z,0
2022-12-22T05:14:07.492Z,0
2022-12-22T05:14:47.227Z,0
2022-12-22T05:21:04.113Z,0
2022-12-22T05:21:44.620Z,0
2022-12-22T05:22:25.176Z,0
2022-12-22T05:23:05.701Z,0
2022-12-22T05:27:08.885Z,0
2022-12-22T05:27:49.421Z,0
2022-12-22T05:28:29.958Z,0
2022-12-22T05:29:10.474Z,0
2022-12-22T05:29:51.004Z,0
2022-12-22T05:30:31.557Z,0
2022-12-22T05:31:12.127Z,0
2022-12-22T05:31:52.590Z,0
2022-12-22T05:32:33.097Z,0
2022-12-22T05:33:13.651Z,0
2022-12-22T05:38:09.476Z,0
2022-12-22T05:38:50.021Z,0
2022-12-22T05:39:30.583Z,0
2022-12-22T05:40:11.123Z,0
2022-12-22T05:42:13.311Z,0
2022-12-22T05:42:53.901Z,0
2022-12-22T05:43:34.390Z,0
2022-12-22T05:44:15.002Z,0
2022-12-22T05:44:55.537Z,0
2022-12-22T05:45:36.095Z,0
2022-12-22T05:46:17.682Z,0
2022-12-22T05:46:58.114Z,0
2022-12-22T05:49:51.827Z,0
2022-12-22T05:50:32.345Z,0
2022-12-22T05:51:13.049Z,0
2022-12-22T05:51:53.579Z,0
2022-12-22T05:55:16.861Z,0
2022-12-22T05:55:57.367Z,0
2022-12-22T05:56:37.861Z,0
2022-12-22T05:57:18.392Z,0
2022-12-22T05:57:58.911Z,0
2022-12-22T05:58:39.466Z,0
2022-12-22T05:59:19.978Z,0
2022-12-22T06:00:00.519Z,0
2022-12-22T06:00:41.082Z,0
2022-12-22T06:05:36.225Z,0
2022-12-22T06:06:16.778Z,0
2022-12-22T06:06:57.307Z,0
2022-12-22T06:07:37.819Z,0
2022-12-22T06:11:41.898Z,0
2022-12-22T06:12:22.400Z,0
2022-12-22T06:13:02.941Z,0
2022-12-22T06:13:43.445Z,0
2022-12-22T06:14:23.986Z,0
2022-12-22T06:15:05.214Z,0
2022-12-22T06:15:45.809Z,0
2022-12-22T06:22:03.633Z,0
2022-12-22T06:22:44.219Z,0
2022-12-22T06:23:24.740Z,0
2022-12-22T06:24:05.290Z,0
2022-12-22T06:26:08.584Z,0
2022-12-22T06:26:49.133Z,0
2022-12-22T06:27:29.660Z,0
2022-12-22T06:28:10.165Z,0
2022-12-22T06:28:50.713Z,0
2022-12-22T06:29:31.271Z,0
2022-12-22T06:30:11.816Z,0
2022-12-22T06:30:52.456Z,0
2022-12-22T06:31:33.000Z,0
2022-12-22T06:36:28.672Z,0
2022-12-22T06:37:09.203Z,0
2022-12-22T06:37:49.763Z,0
2022-12-22T06:38:30.391Z,0
2022-12-22T06:41:53.267Z,0
2022-12-22T06:44:33.288Z,0
2022-12-22T06:45:13.877Z,0
2022-12-22T06:45:54.427Z,0
2022-12-22T06:46:34.979Z,0
2022-12-22T06:50:08.999Z,0
2022-12-22T06:50:49.573Z,0
2022-12-22T06:51:30.046Z,0
2022-12-22T06:52:10.565Z,0
2022-12-22T06:55:34.094Z,0
2022-12-22T06:57:48.282Z,0
2022-12-22T06:58:28.785Z,0
2022-12-22T06:59:10.007Z,0
2022-12-22T07:01:51.285Z,0
2022-12-22T07:02:31.886Z,0
2022-12-22T07:03:13.155Z,0
2022-12-22T07:03:53.523Z,0
2022-12-22T07:06:07.106Z,0
2022-12-22T07:06:47.616Z,0
2022-12-22T07:07:28.978Z,0
2022-12-22T07:10:11.069Z,0
2022-12-22T07:10:52.261Z,0
2022-12-22T07:11:32.786Z,0
2022-12-22T07:12:13.400Z,0
2022-12-22T07:14:28.111Z,0
2022-12-22T07:15:16.015Z,5
2022-12-22T07:16:00.402Z,5
2022-12-22T07:16:37.050Z,5
2022-12-22T07:19:10.672Z,5
2022-12-22T07:19:51.142Z,5
2022-12-22T07:20:31.702Z,5
2022-12-22T07:21:12.264Z,5
2022-12-22T07:23:25.359Z,5
2022-12-22T07:24:05.858Z,5
2022-12-22T07:24:46.398Z,5
2022-12-22T07:25:26.935Z,5
2022-12-22T07:28:21.605Z,5
2022-12-22T07:29:02.873Z,5
2022-12-22T07:29:44.142Z,5
2022-12-22T07:30:24.645Z,5
2022-12-22T07:32:38.249Z,5
2022-12-22T07:33:18.804Z,5
2022-12-22T07:33:59.337Z,5
2022-12-22T07:34:39.920Z,10
2022-12-22T07:38:14.102Z,15
2022-12-22T07:38:56.135Z,20
2022-12-22T07:39:36.695Z,20
2022-12-22T07:40:17.260Z,20
2022-12-22T07:42:33.458Z,30
2022-12-22T07:43:14.032Z,30
2022-12-22T07:43:54.544Z,35
2022-12-22T07:46:36.196Z,25
2022-12-22T07:47:16.678Z,25
2022-12-22T07:47:58.821Z,20
2022-12-22T07:48:41.256Z,20
2022-12-22T07:50:55.658Z,25
2022-12-22T07:51:36.285Z,20
2022-12-22T07:52:17.407Z,20
2022-12-22T07:52:57.970Z,20
2022-12-22T07:55:18.314Z,30
2022-12-22T07:56:03.274Z,30
2022-12-22T07:56:44.338Z,35
2022-12-22T07:57:30.223Z,35
2022-12-22T08:00:00.984Z,35
2022-12-22T08:00:41.502Z,40
2022-12-22T08:01:24.502Z,40
2022-12-22T08:02:05.595Z,50
2022-12-22T08:04:19.777Z,50
2022-12-22T08:05:01.160Z,45
2022-12-22T08:05:43.522Z,45
2022-12-22T08:06:25.603Z,45
2022-12-22T08:08:39.014Z,30
2022-12-22T08:09:20.520Z,25
2022-12-22T08:10:01.042Z,30
2022-12-22T08:10:42.523Z,35
2022-12-22T08:11:23.065Z,45
2022-12-22T08:12:03.607Z,45
2022-12-22T08:14:42.094Z,45
2022-12-22T08:15:22.606Z,50
2022-12-22T08:16:03.199Z,45
2022-12-22T08:16:43.806Z,50
2022-12-22T08:20:46.895Z,40
2022-12-22T08:21:27.456Z,35
2022-12-22T08:22:08.865Z,50
2022-12-22T08:22:49.391Z,60
2022-12-22T08:23:29.909Z,50
2022-12-22T08:24:11.161Z,45
2022-12-22T08:24:51.682Z,65
2022-12-22T08:28:56.780Z,70
2022-12-22T08:29:37.363Z,80
2022-12-22T08:30:17.880Z,90
2022-12-22T08:30:58.427Z,100
2022-12-22T08:31:39.079Z,95
2022-12-22T08:32:20.119Z,80
2022-12-22T08:33:00.626Z,65
2022-12-22T08:33:41.132Z,65
2022-12-22T08:34:21.689Z,75
2022-12-22T08:40:27.156Z,105
2022-12-22T08:41:07.716Z,100
2022-12-22T08:41:48.270Z,95
2022-12-22T08:42:28.828Z,75
2022-12-22T08:43:09.353Z,60
2022-12-22T08:43:50.682Z,65
2022-12-22T08:44:31.225Z,65
2022-12-22T08:45:11.737Z,65
2022-12-22T08:51:57.018Z,80
2022-12-22T08:52:37.559Z,90
2022-12-22T08:53:37.449Z,95
2022-12-22T08:54:06.793Z,95
2022-12-22T08:54:39.223Z,110
2022-12-22T08:57:07.526Z,130
2022-12-22T08:57:53.979Z,125
2022-12-22T08:58:29.461Z,115
2022-12-22T08:59:10.019Z,115
2022-12-22T09:02:10.380Z,90
2022-12-22T09:02:51.381Z,95
2022-12-22T09:03:32.464Z,70
2022-12-22T09:04:13.793Z,70
2022-12-22T09:06:46.908Z,65
2022-12-22T09:07:27.530Z,70
2022-12-22T09:08:08.083Z,65
2022-12-22T09:08:48.585Z,60
2022-12-22T09:13:43.893Z,45
2022-12-22T09:14:24.984Z,50
2022-12-22T09:15:05.519Z,45
2022-12-22T09:15:46.036Z,45
2022-12-22T09:17:08.976Z,60
2022-12-22T09:17:49.464Z,60
2022-12-22T09:20:03.102Z,40
2022-12-22T09:20:43.617Z,40
2022-12-22T09:21:24.251Z,40
2022-12-22T09:22:04.797Z,45
2022-12-22T09:24:47.715Z,60
2022-12-22T09:25:28.945Z,60
2022-12-22T09:26:09.495Z,55
2022-12-22T09:26:49.991Z,45
2022-12-22T09:27:30.546Z,70
2022-12-22T09:28:12.135Z,80
2022-12-22T09:28:52.876Z,75
2022-12-22T09:31:51.678Z,75
2022-12-22T09:32:32.385Z,70
2022-12-22T09:33:12.889Z,60
2022-12-22T09:33:53.520Z,55
2022-12-22T09:36:47.098Z,55
2022-12-22T09:37:27.625Z,55
2022-12-22T09:38:09.123Z,50
2022-12-22T09:38:49.682Z,50
2022-12-22T09:41:09.139Z,70
2022-12-22T09:41:49.671Z,70
2022-12-22T09:42:30.162Z,70
2022-12-22T09:43:10.685Z,70
2022-12-22T09:45:40.215Z,85
2022-12-22T09:46:20.767Z,90
2022-12-22T09:47:03.066Z,80
2022-12-22T09:47:43.606Z,70
2022-12-22T09:50:12.192Z,55
2022-12-22T09:50:52.804Z,55
2022-12-22T09:51:33.400Z,55
2022-12-22T09:52:13.955Z,40
2022-12-22T09:55:28.535Z,45
2022-12-22T09:56:09.020Z,40
2022-12-22T09:56:49.545Z,45
2022-12-22T09:57:30.067Z,50
2022-12-22T09:59:32.567Z,50
2022-12-22T10:02:12.522Z,65
2022-12-22T10:02:53.060Z,65
2022-12-22T10:03:35.207Z,75
2022-12-22T10:04:16.581Z,95
2022-12-22T10:06:33.315Z,115
2022-12-22T10:07:13.823Z,120
2022-12-22T10:07:54.375Z,115
2022-12-22T10:08:34.969Z,115
2022-12-22T10:11:17.132Z,105
2022-12-22T10:11:57.730Z,100
2022-12-22T10:12:38.331Z,105
2022-12-22T10:13:18.782Z,95
2022-12-22T10:13:59.333Z,100
2022-12-22T10:14:40.042Z,100
2022-12-22T10:15:22.116Z,100
2022-12-22T10:16:01.104Z,100
2022-12-22T10:16:41.655Z,105
2022-12-22T10:19:56.675Z,100
2022-12-22T10:20:37.227Z,90
2022-12-22T10:21:17.753Z,80
2022-12-22T10:21:59.271Z,70
2022-12-22T10:24:28.210Z,50
2022-12-22T10:25:08.731Z,55
2022-12-22T10:26:26.634Z,60
2022-12-22T10:26:31.375Z,60
2022-12-22T10:29:48.846Z,70
2022-12-22T10:30:29.340Z,75
2022-12-22T10:31:09.922Z,80
2022-12-22T10:31:50.528Z,75
2022-12-22T10:34:11.037Z,80
2022-12-22T10:34:51.558Z,75
2022-12-22T10:35:32.074Z,60
2022-12-22T10:36:12.605Z,60
2022-12-22T10:38:31.030Z,55
2022-12-22T10:39:11.551Z,50
2022-12-22T10:39:52.147Z,55
2022-12-22T10:40:32.689Z,60
2022-12-22T10:43:11.905Z,45
2022-12-22T10:43:52.433Z,45
2022-12-22T10:44:32.960Z,40
2022-12-22T10:45:13.507Z,40
2022-12-22T10:47:48.978Z,30
2022-12-22T10:48:29.475Z,40
2022-12-22T10:49:10.006Z,50
2022-12-22T10:51:38.298Z,45
2022-12-22T10:52:23.929Z,45
2022-12-22T10:52:59.896Z,40
2022-12-22T10:53:40.416Z,40
2022-12-22T10:57:03.706Z,55
2022-12-22T10:57:44.281Z,55
2022-12-22T10:58:24.806Z,60
2022-12-22T10:59:05.331Z,70
2022-12-22T10:59:45.857Z,75
2022-12-22T11:00:26.883Z,75
2022-12-22T11:01:07.462Z,65
2022-12-22T11:01:48.017Z,65
2022-12-22T11:08:10.074Z,60
2022-12-22T11:08:51.704Z,70
2022-12-22T11:09:34.080Z,70
2022-12-22T11:10:12.190Z,50
2022-12-22T11:12:54.596Z,95
2022-12-22T11:13:35.221Z,75
2022-12-22T11:14:15.904Z,75
2022-12-22T11:14:56.412Z,90
2022-12-22T11:15:37.031Z,105
2022-12-22T11:16:17.627Z,105
2022-12-22T11:16:58.252Z,130
2022-12-22T11:17:38.721Z,145
2022-12-22T11:20:24.305Z,100
2022-12-22T11:21:06.835Z,85
2022-12-22T11:23:41.398Z,65
2022-12-22T11:24:21.996Z,50
2022-12-22T11:25:02.509Z,50
2022-12-22T11:25:43.157Z,55
2022-12-22T11:27:57.370Z,70
2022-12-22T11:28:38.875Z,65
2022-12-22T11:29:19.454Z,75
2022-12-22T11:29:59.929Z,90
2022-12-22T11:32:14.181Z,65
2022-12-22T11:32:54.673Z,60
2022-12-22T11:33:35.191Z,65
2022-12-22T11:36:13.675Z,65
2022-12-22T11:36:54.214Z,60
2022-12-22T11:37:34.759Z,75
2022-12-22T11:38:15.276Z,85
2022-12-22T11:42:19.385Z,75
2022-12-22T11:43:00.736Z,80
2022-12-22T11:43:41.257Z,80
2022-12-22T11:44:22.428Z,75
2022-12-22T11:49:18.585Z,50
2022-12-22T11:50:00.301Z,45
2022-12-22T11:50:46.196Z,35
2022-12-22T11:51:27.231Z,35
2022-12-22T11:53:55.731Z,50
2022-12-22T11:54:36.272Z,50
2022-12-22T11:55:16.791Z,40
2022-12-22T11:55:57.331Z,40
2022-12-22T12:00:12.751Z,30
2022-12-22T12:01:35.442Z,40
2022-12-22T12:04:13.990Z,40
2022-12-22T12:04:54.429Z,40
2022-12-22T12:05:34.975Z,35
2022-12-22T12:06:15.530Z,30
2022-12-22T12:07:39.099Z,30
2022-12-22T12:08:19.640Z,35
2022-12-22T12:10:47.993Z,35
2022-12-22T12:11:28.559Z,25
2022-12-22T12:12:10.024Z,30
2022-12-22T12:12:51.113Z,30
2022-12-22T12:15:04.285Z,35
2022-12-22T12:15:44.806Z,35
2022-12-22T12:16:25.346Z,25
2022-12-22T12:17:05.807Z,25
2022-12-22T12:19:34.965Z,30
2022-12-22T12:20:16.146Z,30
2022-12-22T12:20:56.647Z,30
2022-12-22T12:21:37.228Z,35
2022-12-22T12:25:11.607Z,40
2022-12-22T12:25:52.098Z,50
2022-12-22T12:26:32.670Z,55
2022-12-22T12:27:13.202Z,55
2022-12-22T12:29:27.161Z,55
2022-12-22T12:30:48.464Z,40
2022-12-22T12:31:28.959Z,35
2022-12-22T12:34:22.535Z,30
2022-12-22T12:35:03.079Z,30
2022-12-22T12:35:43.592Z,40
2022-12-22T12:36:24.116Z,40
2022-12-22T12:40:27.291Z,40
2022-12-22T12:41:07.819Z,40
2022-12-22T12:41:48.357Z,40
2022-12-22T12:42:28.880Z,50
2022-12-22T12:43:14.278Z,50
2022-12-22T12:43:49.994Z,50
2022-12-22T12:44:30.521Z,50
2022-12-22T12:45:11.076Z,45
2022-12-22T12:45:51.671Z,45
2022-12-22T12:46:32.213Z,45
2022-12-22T12:52:48.647Z,65
2022-12-22T12:53:29.079Z,75
2022-12-22T12:54:09.648Z,65
2022-12-22T12:54:50.795Z,55
2022-12-22T12:57:18.760Z,50
2022-12-22T12:57:59.278Z,65
2022-12-22T12:58:40.587Z,75
2022-12-22T12:59:21.087Z,75
2022-12-22T13:01:35.304Z,55
2022-12-22T13:02:17.165Z,55
2022-12-22T13:02:57.722Z,55
2022-12-22T13:04:02.196Z,60
2022-12-22T13:04:22.715Z,55
2022-12-22T13:06:52.340Z,40
2022-12-22T13:07:32.859Z,45
2022-12-22T13:08:13.374Z,45
2022-12-22T13:09:08.086Z,45
2022-12-22T13:12:57.145Z,30
2022-12-22T13:13:37.684Z,25
2022-12-22T13:14:18.279Z,25
2022-12-22T13:14:58.730Z,25
2022-12-22T13:15:39.370Z,30
2022-12-22T13:16:19.809Z,30
2022-12-22T13:17:00.358Z,30
2022-12-22T13:19:45.097Z,25
2022-12-22T13:20:25.696Z,30
2022-12-22T13:21:42.336Z,35
2022-12-22T13:21:53.761Z,35
2022-12-22T13:24:26.149Z,25
2022-12-22T13:24:57.404Z,25
2022-12-22T13:25:37.926Z,20
2022-12-22T13:26:18.515Z,20
2022-12-22T13:28:36.683Z,30
2022-12-22T13:29:17.731Z,35
2022-12-22T13:29:58.261Z,40
2022-12-22T13:30:38.814Z,50
2022-12-22T13:33:21.575Z,50
2022-12-22T13:34:02.082Z,45
2022-12-22T13:35:04.743Z,50
2022-12-22T13:35:32.346Z,55
2022-12-22T13:36:03.713Z,55
2022-12-22T13:36:44.194Z,55
2022-12-22T13:37:24.743Z,45
2022-12-22T13:38:05.344Z,40
2022-12-22T13:38:45.932Z,40
2022-12-22T13:44:51.404Z,25
2022-12-22T13:45:31.959Z,20
2022-12-22T13:46:12.503Z,20
2022-12-22T13:46:53.033Z,20
2022-12-22T13:47:33.575Z,20
2022-12-22T13:48:14.176Z,25
2022-12-22T13:48:54.662Z,25
2022-12-22T13:50:06.881Z,25
2022-12-22T13:50:15.750Z,30
2022-12-22T13:54:08.203Z,35
2022-12-22T13:54:31.556Z,40
2022-12-22T13:55:12.144Z,40
2022-12-22T13:55:52.654Z,35
2022-12-22T13:58:34.842Z,35
2022-12-22T13:59:15.391Z,35
2022-12-22T13:59:55.969Z,35
2022-12-22T14:00:36.588Z,30
2022-12-22T14:01:17.299Z,30
2022-12-22T14:01:57.849Z,40
2022-12-22T14:02:38.327Z,40
2022-12-22T14:03:41.543Z,35
2022-12-22T14:05:57.471Z,20
2022-12-22T14:06:38.015Z,20
2022-12-22T14:07:18.611Z,20
2022-12-22T14:07:59.163Z,20
2022-12-22T14:12:02.676Z,25
2022-12-22T14:12:43.232Z,25
2022-12-22T14:13:23.836Z,30
2022-12-22T14:14:04.376Z,35
2022-12-22T14:14:44.966Z,35
2022-12-22T14:15:25.480Z,35
2022-12-22T14:16:06.050Z,35
2022-12-22T14:16:46.671Z,35
2022-12-22T14:22:23.600Z,45
2022-12-22T14:23:04.164Z,50
2022-12-22T14:23:46.307Z,55
2022-12-22T14:24:32.119Z,60
2022-12-22T14:26:47.357Z,55
2022-12-22T14:27:27.971Z,50
2022-12-22T14:28:08.521Z,40
2022-12-22T14:28:49.081Z,35
2022-12-22T14:32:54.983Z,25
2022-12-22T14:35:30.819Z,20
2022-12-22T14:36:11.385Z,20
2022-12-22T14:36:53.786Z,15
2022-12-22T14:37:33.217Z,15
2022-12-22T14:41:35.639Z,25
2022-12-22T14:42:16.157Z,25
2022-12-22T14:42:56.714Z,25
2022-12-22T14:43:37.259Z,20
2022-12-22T14:44:17.776Z,20
2022-12-22T14:44:58.397Z,20
2022-12-22T14:45:38.986Z,20
2022-12-22T14:46:19.510Z,25
2022-12-22T14:46:59.954Z,25
2022-12-22T14:52:18.020Z,15
2022-12-22T14:52:58.518Z,15
2022-12-22T14:53:39.035Z,20
2022-12-22T14:54:20.179Z,15
2022-12-22T14:57:03.008Z,15
2022-12-22T14:57:43.559Z,15
2022-12-22T14:58:24.134Z,15
2022-12-22T14:59:04.646Z,15
2022-12-22T14:59:45.226Z,15
2022-12-22T15:00:25.777Z,10
2022-12-22T15:01:06.376Z,10
2022-12-22T15:01:47.014Z,10
2022-12-22T15:02:27.956Z,10
2022-12-22T15:09:47.556Z,5
2022-12-22T15:10:15.473Z,5
2022-12-22T15:10:46.764Z,5
2022-12-22T15:11:27.342Z,5
2022-12-22T15:13:41.908Z,0
2022-12-22T15:14:22.465Z,0
2022-12-22T15:15:02.969Z,0
2022-12-22T15:15:43.493Z,0
2022-12-22T15:19:17.715Z,0
2022-12-22T15:19:58.263Z,0
2022-12-22T15:20:39.723Z,0
2022-12-22T15:21:19.370Z,0
2022-12-22T15:25:22.549Z,0
2022-12-22T15:28:01.052Z,0
2022-12-22T15:28:41.657Z,0
2022-12-22T15:29:22.171Z,0
2022-12-22T15:30:02.758Z,0
2022-12-22T15:34:06.023Z,0
2022-12-22T15:34:47.083Z,0
2022-12-22T15:35:27.599Z,0
2022-12-22T15:36:08.127Z,0
2022-12-22T15:36:48.711Z,0
2022-12-22T15:37:29.228Z,0
2022-12-22T15:38:09.754Z,0
2022-12-22T15:38:50.295Z,0
2022-12-22T15:45:47.986Z,0
2022-12-22T15:46:28.544Z,0
2022-12-22T15:47:09.070Z,0
2022-12-22T15:47:49.543Z,0
2022-12-22T15:52:04.312Z,0
2022-12-22T15:52:45.775Z,0
2022-12-22T15:53:26.266Z,0
2022-12-22T15:54:06.797Z,0
2022-12-22T15:56:19.940Z,0
2022-12-22T15:57:00.401Z,0
2022-12-22T15:57:40.921Z,0
2022-12-22T15:58:22.027Z,0
2022-12-22T16:00:36.151Z,0
2022-12-22T16:01:16.726Z,0
2022-12-22T16:02:01.121Z,0
2022-12-22T16:02:37.917Z,0
2022-12-22T16:05:12.357Z,0
2022-12-22T16:05:52.941Z,0
2022-12-22T16:06:34.112Z,0
2022-12-22T16:07:14.658Z,0
2022-12-22T16:09:27.759Z,0
2022-12-22T16:10:08.235Z,0
2022-12-22T16:10:49.293Z,0
2022-12-22T16:11:29.822Z,0
2022-12-22T16:13:32.878Z,0
2022-12-22T16:14:13.407Z,0
2022-12-22T16:14:53.934Z,0
2022-12-22T16:15:34.637Z,0
2022-12-22T16:16:15.050Z,0
2022-12-22T16:16:55.536Z,0
2022-12-22T16:17:36.652Z,0
2022-12-22T16:20:11.085Z,0
2022-12-22T16:20:54.127Z,0
2022-12-22T16:21:34.611Z,0
2022-12-22T16:22:17.619Z,0
2022-12-22T16:22:58.919Z,0
2022-12-22T16:25:30.774Z,0
2022-12-22T16:26:12.082Z,0
2022-12-22T16:26:52.663Z,0
2022-12-22T16:27:35.942Z,0
2022-12-22T16:28:17.216Z,0
2022-12-22T16:31:04.444Z,0
2022-12-22T16:31:47.384Z,0
2022-12-22T16:33:55.562Z,0
2022-12-22T16:38:04.793Z,0
2022-12-22T16:40:53.445Z,0
2022-12-22T16:41:35.702Z,0
2022-12-22T16:45:49.981Z,0
2022-12-22T16:46:30.359Z,0
2022-12-22T16:47:15.261Z,0
2022-12-22T16:49:51.357Z,0
2022-12-22T16:50:31.902Z,0
2022-12-22T16:51:12.446Z,0
2022-12-22T16:51:52.969Z,0
2022-12-22T16:54:06.146Z,0
2022-12-22T16:54:50.695Z,0
2022-12-22T16:55:27.179Z,0
2022-12-22T16:56:08.327Z,0
2022-12-22T16:58:21.385Z,0
2022-12-22T16:59:01.912Z,0
2022-12-22T16:59:42.431Z,0
2022-12-22T17:00:22.929Z,0
2022-12-22T17:04:38.371Z,0
2022-12-22T17:05:18.924Z,0
2022-12-22T17:05:59.509Z,0
2022-12-22T17:06:39.957Z,0
2022-12-22T17:10:03.364Z,0
2022-12-22T17:10:43.891Z,0
2022-12-22T17:11:24.417Z,0
2022-12-22T17:12:04.922Z,0
2022-12-22T17:12:45.452Z,0
2022-12-22T17:13:25.954Z,0
2022-12-22T17:14:07.366Z,0
2022-12-22T17:16:20.638Z,0
2022-12-22T17:17:01.130Z,0
2022-12-22T17:17:42.399Z,0
2022-12-22T17:18:22.262Z,0
2022-12-22T17:21:59.252Z,0
2022-12-22T17:22:39.873Z,0
2022-12-22T17:23:21.302Z,0
2022-12-22T17:24:01.879Z,0
2022-12-22T17:26:16.523Z,0
2022-12-22T17:26:57.066Z,0
2022-12-22T17:27:37.575Z,0
2022-12-22T17:28:18.215Z,0
2022-12-22T17:32:13.187Z,0
2022-12-22T17:32:53.741Z,0
2022-12-22T17:33:34.258Z,0
2022-12-22T17:34:14.807Z,0
2022-12-22T17:37:08.383Z,0
2022-12-22T17:37:49.713Z,0
2022-12-22T17:38:30.264Z,0
2022-12-22T17:39:11.585Z,0
2022-12-22T17:41:24.679Z,0
2022-12-22T17:42:05.263Z,0
2022-12-22T17:42:45.802Z,0
2022-12-22T17:43:26.328Z,0
2022-12-22T17:45:39.406Z,0
2022-12-22T17:46:20.023Z,0
2022-12-22T17:47:00.538Z,0
2022-12-22T17:47:43.154Z,0
2022-12-22T17:49:55.517Z,0
2022-12-22T17:50:36.045Z,0
2022-12-22T17:51:17.514Z,0
2022-12-22T17:51:57.940Z,0
2022-12-22T17:55:40.652Z,0
2022-12-22T17:56:09.402Z,0
2022-12-22T17:56:41.641Z,0
2022-12-22T17:57:22.153Z,0
2022-12-22T17:58:02.711Z,0